Time;durP1;ratioP1;P1;durP2;ratioP2;P2;SDS_P1;SDS_P2;PMS_P1;PMS_P2;Temp;Humidity;BMP_temperature;BMP_pressure;BME280_temperature;BME280_humidity;BME280_pressure;Samples;Min_cycle;Max_cycle;Signal;HPM_P1;HPM_P2
2023/03/25 00:00:59;;;;;;;0.10;0.10;;;9.30;99.90;;;;;;5038392;28;20809;-79
2023/03/25 00:03:27;;;;;;;0.10;0.10;;;9.30;99.90;;;;;;5041205;28;20182;-78
2023/03/25 00:05:53;;;;;;;0.10;0.10;;;9.30;99.90;;;;;;5058058;28;20891;-79
2023/03/25 00:08:19;;;;;;;0.10;0.10;;;9.20;99.90;;;;;;5057128;28;20635;-79
2023/03/25 00:10:45;;;;;;;0.10;0.10;;;9.20;99.90;;;;;;5055294;28;20196;-79
2023/03/25 00:13:12;;;;;;;0.10;0.10;;;9.30;99.90;;;;;;5038500;28;20194;-80
2023/03/25 00:15:47;;;;;;;0.10;0.10;;;9.30;99.90;;;;;;5037618;28;20182;-79
2023/03/25 00:18:16;;;;;;;0.10;0.10;;;9.30;99.90;;;;;;5037496;28;20292;-80
2023/03/25 00:20:44;;;;;;;0.10;0.10;;;9.30;99.90;;;;;;5053930;28;20209;-80
2023/03/25 00:23:11;;;;;;;0.10;0.10;;;9.20;99.90;;;;;;5054165;28;20642;-81
2023/03/25 00:25:36;;;;;;;0.10;0.10;;;9.10;99.90;;;;;;5039738;28;20271;-80
2023/03/25 00:28:02;;;;;;;0.10;0.10;;;9.10;99.90;;;;;;5037422;28;20228;-79
2023/03/25 00:30:27;;;;;;;0.10;0.10;;;9.00;99.90;;;;;;5038339;28;20192;-79
2023/03/25 00:32:53;;;;;;;0.10;0.10;;;9.00;99.90;;;;;;5037051;28;20207;-79
2023/03/25 00:35:19;;;;;;;0.10;0.10;;;9.10;99.90;;;;;;5038639;28;20628;-81
2023/03/25 00:37:46;;;;;;;0.10;0.10;;;9.10;99.90;;;;;;5037502;28;20192;-79
2023/03/25 00:40:13;;;;;;;0.10;0.10;;;8.90;99.90;;;;;;5054004;28;20296;-80
2023/03/25 00:42:43;;;;;;;0.10;0.10;;;9.00;99.90;;;;;;5036342;28;20921;-81
2023/03/25 00:45:10;;;;;;;0.10;0.10;;;8.90;99.90;;;;;;5038227;28;20183;-80
2023/03/25 00:47:36;;;;;;;0.10;0.10;;;9.00;99.90;;;;;;5036857;28;20654;-80
2023/03/25 00:50:03;;;;;;;0.10;0.10;;;9.00;99.90;;;;;;5039032;28;20213;-80
2023/03/25 00:52:28;;;;;;;0.10;0.10;;;9.10;99.90;;;;;;5035980;28;21055;-81
2023/03/25 00:54:54;;;;;;;0.03;0.03;;;9.10;99.90;;;;;;5037516;28;20234;-79
2023/03/25 00:57:19;;;;;;;0.10;0.10;;;9.10;99.90;;;;;;5037021;28;20234;-80
2023/03/25 00:59:45;;;;;;;0.10;0.10;;;9.00;99.90;;;;;;5035365;28;20760;-80
2023/03/25 01:02:11;;;;;;;0.10;0.10;;;9.00;99.90;;;;;;5038860;28;20231;-80
2023/03/25 01:04:38;;;;;;;0.10;0.10;;;9.00;99.90;;;;;;5034462;28;20188;-80
2023/03/25 01:07:03;;;;;;;0.10;0.10;;;9.10;99.90;;;;;;5057122;28;20177;-79
2023/03/25 01:09:29;;;;;;;0.10;0.10;;;9.10;99.90;;;;;;5035068;28;20209;-79
2023/03/25 01:11:55;;;;;;;0.10;0.10;;;9.10;99.90;;;;;;5051394;28;20186;-81
2023/03/25 01:14:23;;;;;;;0.10;0.10;;;9.10;99.90;;;;;;5035755;28;20199;-81
2023/03/25 01:16:49;;;;;;;0.10;0.10;;;9.00;99.90;;;;;;5053542;28;20231;-79
2023/03/25 01:19:14;;;;;;;0.10;0.10;;;9.00;99.90;;;;;;5054108;28;20210;-80
2023/03/25 01:21:40;;;;;;;0.10;0.10;;;9.00;99.90;;;;;;5037141;28;20185;-81
2023/03/25 01:24:09;;;;;;;0.10;0.10;;;9.10;99.90;;;;;;5036294;28;20185;-80
2023/03/25 01:26:35;;;;;;;0.00;0.00;;;9.20;99.90;;;;;;5054092;28;20190;-80
2023/03/25 01:29:01;;;;;;;0.10;0.10;;;9.30;99.90;;;;;;5036808;28;20599;-80
2023/03/25 01:31:28;;;;;;;0.10;0.10;;;9.30;99.90;;;;;;5036126;28;20699;-80
2023/03/25 01:33:55;;;;;;;0.10;0.10;;;9.40;99.90;;;;;;5036129;28;20667;-80
2023/03/25 01:36:23;;;;;;;0.10;0.10;;;9.40;99.90;;;;;;5055817;28;20177;-80
2023/03/25 01:38:49;;;;;;;0.10;0.10;;;9.50;99.90;;;;;;5036235;28;20209;-79
2023/03/25 01:41:15;;;;;;;0.07;0.07;;;9.50;99.90;;;;;;5054702;28;20708;-81
2023/03/25 01:43:40;;;;;;;0.10;0.10;;;9.70;99.90;;;;;;5035085;28;20178;-79
2023/03/25 01:46:13;;;;;;;0.10;0.10;;;9.70;99.90;;;;;;5036480;28;20182;-80
2023/03/25 01:48:41;;;;;;;0.10;0.10;;;9.70;99.90;;;;;;5054191;28;20197;-80
2023/03/25 01:51:13;;;;;;;0.10;0.10;;;9.70;99.90;;;;;;5034599;28;20893;-80
2023/03/25 01:53:39;;;;;;;0.10;0.10;;;9.80;99.90;;;;;;5052712;28;20621;-78
2023/03/25 01:56:06;;;;;;;0.10;0.10;;;9.80;99.90;;;;;;5054283;28;20189;-79
2023/03/25 01:58:34;;;;;;;0.10;0.10;;;9.80;99.90;;;;;;5036862;28;20292;-80
2023/03/25 02:01:01;;;;;;;0.10;0.10;;;9.90;99.90;;;;;;5036979;28;20573;-79
2023/03/25 02:03:27;;;;;;;0.10;0.10;;;10.00;99.90;;;;;;5036614;28;20181;-79
2023/03/25 02:06:02;;;;;;;0.10;0.10;;;10.00;99.90;;;;;;5054175;28;20189;-80
2023/03/25 02:08:31;;;;;;;0.10;0.10;;;10.10;99.90;;;;;;5035144;28;20197;-79
2023/03/25 02:10:57;;;;;;;0.10;0.10;;;10.10;99.90;;;;;;5034943;28;20184;-80
2023/03/25 02:13:24;;;;;;;0.10;0.10;;;10.10;99.90;;;;;;5054021;28;20197;-80
2023/03/25 02:16:15;;;;;;;0.10;0.10;;;10.00;99.90;;;;;;5034426;28;21315;-81
2023/03/25 02:19:16;;;;;;;0.10;0.10;;;9.90;99.90;;;;;;5035192;28;20220;-80
2023/03/25 02:22:13;;;;;;;0.10;0.10;;;10.00;99.90;;;;;;5011080;28;20706;-80
2023/03/25 02:25:00;;;;;;;0.10;0.10;;;9.80;99.90;;;;;;4990286;28;20293;-80
2023/03/25 02:27:51;;;;;;;0.10;0.10;;;9.90;99.90;;;;;;5044512;28;20192;-80
2023/03/25 02:30:26;;;;;;;0.10;0.10;;;9.90;99.90;;;;;;5034964;28;20216;-79
2023/03/25 02:33:35;;;;;;;0.10;0.10;;;9.80;99.90;;;;;;5034052;28;20199;-80
2023/03/25 02:36:56;;;;;;;0.10;0.10;;;10.00;99.90;;;;;;5044689;28;20713;-81
2023/03/25 02:39:41;;;;;;;0.10;0.10;;;10.10;99.90;;;;;;4979854;28;20308;-81
2023/03/25 02:42:22;;;;;;;0.10;0.10;;;10.10;99.90;;;;;;5055091;28;20184;-80
2023/03/25 02:45:02;;;;;;;0.10;0.10;;;10.10;99.90;;;;;;5051536;28;20181;-80
2023/03/25 02:47:34;;;;;;;0.10;0.10;;;10.10;99.90;;;;;;5034754;28;20190;-80
2023/03/25 02:50:14;;;;;;;0.10;0.10;;;10.10;99.90;;;;;;5035015;28;20232;-80
2023/03/25 02:52:49;;;;;;;0.10;0.10;;;10.00;99.90;;;;;;5034962;28;20213;-79
2023/03/25 02:55:18;;;;;;;0.10;0.10;;;10.00;99.90;;;;;;5054299;28;20177;-80
2023/03/25 02:57:47;;;;;;;0.10;0.10;;;10.10;99.90;;;;;;5036041;28;20196;-79
2023/03/25 03:00:17;;;;;;;0.10;0.10;;;10.10;99.90;;;;;;5050690;28;20225;-80
2023/03/25 03:03:00;;;;;;;0.10;0.10;;;10.10;99.90;;;;;;5027324;28;20613;-79
2023/03/25 03:05:30;;;;;;;0.10;0.10;;;10.20;99.90;;;;;;5033934;28;20193;-80
2023/03/25 03:08:18;;;;;;;0.00;0.00;;;10.10;99.90;;;;;;5034681;28;20181;-80
2023/03/25 03:10:50;;;;;;;0.10;0.10;;;10.10;99.90;;;;;;5054260;28;20179;-80
2023/03/25 03:13:47;;;;;;;0.10;0.10;;;10.00;99.90;;;;;;5052756;28;20186;-80
2023/03/25 03:16:20;;;;;;;0.10;0.10;;;9.90;99.90;;;;;;5034926;28;20229;-79
2023/03/25 03:19:07;;;;;;;0.00;0.00;;;9.90;99.90;;;;;;5053988;28;20212;-80
2023/03/25 03:21:39;;;;;;;0.10;0.10;;;9.90;99.90;;;;;;5033695;28;21242;-80
2023/03/25 03:24:14;;;;;;;0.10;0.10;;;9.90;99.90;;;;;;5034603;28;20192;-79
2023/03/25 03:26:54;;;;;;;0.10;0.10;;;9.90;99.90;;;;;;5051720;28;20188;-80
2023/03/25 03:29:27;;;;;;;0.10;0.10;;;9.80;99.90;;;;;;5035324;28;20254;-79
2023/03/25 03:32:17;;;;;;;0.10;0.10;;;9.90;99.90;;;;;;5035003;28;20197;-79
2023/03/25 03:34:48;;;;;;;0.10;0.10;;;9.80;99.90;;;;;;5042462;28;20196;-80
2023/03/25 03:37:19;;;;;;;0.10;0.10;;;9.90;99.90;;;;;;5052668;28;20197;-80
2023/03/25 03:39:47;;;;;;;0.10;0.10;;;9.80;99.90;;;;;;5026146;28;20378;-79
2023/03/25 03:42:22;;;;;;;0.10;0.10;;;9.80;99.90;;;;;;5033802;28;20228;-80
2023/03/25 03:44:55;;;;;;;0.10;0.10;;;9.80;99.90;;;;;;5034266;28;20189;-79
2023/03/25 03:47:30;;;;;;;0.07;0.07;;;9.80;99.90;;;;;;5032223;28;20224;-80
2023/03/25 03:50:05;;;;;;;0.10;0.10;;;9.80;99.90;;;;;;5035376;28;20673;-80
2023/03/25 03:52:36;;;;;;;0.10;0.10;;;9.80;99.90;;;;;;5034157;28;20188;-80
2023/03/25 03:55:29;;;;;;;0.10;0.10;;;9.80;99.90;;;;;;5034013;28;20190;-80
2023/03/25 03:58:08;;;;;;;0.10;0.10;;;9.80;99.90;;;;;;5052716;28;20185;-79
2023/03/25 04:01:12;;;;;;;0.10;0.10;;;9.80;99.90;;;;;;5051399;28;20210;-79
2023/03/25 04:03:56;;;;;;;0.07;0.07;;;9.70;99.90;;;;;;5002946;28;20182;-78
2023/03/25 04:06:34;;;;;;;0.10;0.10;;;9.70;99.90;;;;;;5052109;28;20185;-79
2023/03/25 04:09:08;;;;;;;0.10;0.10;;;9.70;99.90;;;;;;5033028;28;20212;-79
2023/03/25 04:11:43;;;;;;;0.10;0.10;;;9.70;99.90;;;;;;5051744;28;20215;-79
2023/03/25 04:14:11;;;;;;;0.10;0.10;;;9.60;99.90;;;;;;5034886;28;20185;-79
2023/03/25 04:16:37;;;;;;;0.10;0.10;;;9.70;99.90;;;;;;5026745;28;20209;-79
2023/03/25 04:19:04;;;;;;;0.10;0.10;;;9.60;99.90;;;;;;5053353;28;20328;-79
2023/03/25 04:21:31;;;;;;;0.10;0.10;;;9.70;99.90;;;;;;5033939;28;20267;-78
2023/03/25 04:24:00;;;;;;;0.03;0.03;;;9.80;99.90;;;;;;5026058;28;20185;-79
2023/03/25 04:26:32;;;;;;;0.10;0.10;;;9.70;99.90;;;;;;5035177;28;20557;-79
2023/03/25 04:29:00;;;;;;;0.10;0.10;;;9.60;99.90;;;;;;5032406;28;20227;-79
2023/03/25 04:31:29;;;;;;;0.10;0.10;;;9.60;99.90;;;;;;5033982;28;20829;-78
2023/03/25 04:33:56;;;;;;;0.10;0.10;;;9.60;99.90;;;;;;5037945;28;20187;-79
2023/03/25 04:36:22;;;;;;;0.10;0.10;;;9.70;99.90;;;;;;5039146;28;20252;-79
2023/03/25 04:38:48;;;;;;;0.07;0.07;;;9.60;99.90;;;;;;5057067;28;20284;-79
2023/03/25 04:41:14;;;;;;;0.10;0.10;;;9.60;99.90;;;;;;5035361;28;20328;-79
2023/03/25 04:43:40;;;;;;;0.10;0.10;;;9.60;99.90;;;;;;5038473;28;20193;-80
2023/03/25 04:46:08;;;;;;;0.10;0.10;;;9.60;99.90;;;;;;5039895;28;20196;-80
2023/03/25 04:48:40;;;;;;;0.10;0.10;;;9.50;99.90;;;;;;5037439;28;20193;-80
2023/03/25 04:51:09;;;;;;;0.10;0.10;;;9.50;99.90;;;;;;5036496;28;20190;-80
2023/03/25 04:53:35;;;;;;;0.10;0.10;;;9.50;99.90;;;;;;5038550;28;20646;-79
2023/03/25 04:56:01;;;;;;;0.10;0.10;;;9.50;99.90;;;;;;5054125;28;20219;-81
2023/03/25 04:58:27;;;;;;;0.10;0.10;;;9.40;99.90;;;;;;5037137;28;20205;-80
2023/03/25 05:00:53;;;;;;;0.10;0.10;;;9.50;99.90;;;;;;5037157;28;20228;-79
2023/03/25 05:03:23;;;;;;;0.10;0.10;;;9.50;99.90;;;;;;5038902;28;20887;-80
2023/03/25 05:05:52;;;;;;;0.10;0.10;;;9.50;99.90;;;;;;5054176;28;20170;-79
2023/03/25 05:08:20;;;;;;;0.10;0.10;;;9.50;99.90;;;;;;5036935;28;20192;-79
2023/03/25 05:10:46;;;;;;;0.10;0.10;;;9.50;99.90;;;;;;5054424;28;20185;-79
2023/03/25 05:13:12;;;;;;;0.10;0.10;;;9.50;99.90;;;;;;5036196;28;20185;-79
2023/03/25 05:15:38;;;;;;;0.10;0.10;;;9.40;99.90;;;;;;5055739;28;20185;-79
2023/03/25 05:18:15;;;;;;;0.10;0.10;;;9.40;99.90;;;;;;5037528;28;20687;-80
2023/03/25 05:20:43;;;;;;;0.00;0.00;;;9.30;99.90;;;;;;5055869;28;20250;-80
2023/03/25 05:23:14;;;;;;;0.10;0.10;;;9.30;99.90;;;;;;5037769;28;20207;-80
2023/03/25 05:25:41;;;;;;;0.10;0.10;;;9.40;99.90;;;;;;5036858;28;20264;-79
2023/03/25 05:28:08;;;;;;;0.10;0.10;;;9.30;99.90;;;;;;5035975;28;20201;-79
2023/03/25 05:30:37;;;;;;;0.10;0.10;;;9.30;99.90;;;;;;5036593;28;20178;-78
2023/03/25 05:33:10;;;;;;;0.10;0.10;;;9.30;99.90;;;;;;5033545;28;20276;-79
2023/03/25 05:35:37;;;;;;;0.10;0.10;;;9.20;99.90;;;;;;5053032;28;20185;-80
2023/03/25 05:38:04;;;;;;;0.10;0.10;;;9.20;99.90;;;;;;5037254;28;20196;-79
2023/03/25 05:40:29;;;;;;;0.20;0.20;;;9.20;99.90;;;;;;5035963;28;20205;-80
2023/03/25 05:42:55;;;;;;;0.10;0.10;;;9.20;99.90;;;;;;5033486;28;20185;-79
2023/03/25 05:45:22;;;;;;;0.10;0.10;;;9.20;99.90;;;;;;5030985;28;20193;-80
2023/03/25 05:47:47;;;;;;;0.10;0.10;;;9.10;99.90;;;;;;5037616;28;20231;-79
2023/03/25 05:50:13;;;;;;;0.10;0.10;;;9.10;99.90;;;;;;5056335;28;20216;-79
2023/03/25 05:52:42;;;;;;;0.10;0.10;;;9.10;99.90;;;;;;5055382;28;20607;-79
2023/03/25 05:55:17;;;;;;;0.10;0.10;;;9.10;99.90;;;;;;5038031;28;20495;-80
2023/03/25 05:57:42;;;;;;;0.10;0.10;;;9.20;99.90;;;;;;5037363;28;20196;-80
2023/03/25 06:00:11;;;;;;;0.03;0.03;;;9.30;99.90;;;;;;5057731;28;20286;-80
2023/03/25 06:02:37;;;;;;;0.10;0.10;;;9.40;99.90;;;;;;5038729;28;20204;-79
2023/03/25 06:05:05;;;;;;;0.10;0.10;;;9.50;99.90;;;;;;5057123;28;20654;-79
2023/03/25 06:07:31;;;;;;;0.10;0.10;;;9.50;99.90;;;;;;5035011;28;20302;-79
2023/03/25 06:09:56;;;;;;;0.10;0.10;;;9.50;99.90;;;;;;5037974;28;20206;-80
2023/03/25 06:12:22;;;;;;;0.10;0.10;;;9.50;99.90;;;;;;5035894;28;20190;-79
2023/03/25 06:14:52;;;;;;;0.10;0.10;;;9.60;99.90;;;;;;5036594;28;20569;-79
2023/03/25 06:17:20;;;;;;;0.10;0.10;;;9.70;99.90;;;;;;5035490;28;21253;-80
2023/03/25 06:19:47;;;;;;;0.10;0.10;;;9.70;99.90;;;;;;5055409;28;20227;-80
2023/03/25 06:22:13;;;;;;;0.10;0.10;;;9.70;99.90;;;;;;5038181;28;20663;-80
2023/03/25 06:24:40;;;;;;;0.10;0.10;;;9.70;99.90;;;;;;5040280;28;20185;-80
2023/03/25 06:27:15;;;;;;;0.10;0.10;;;9.80;99.90;;;;;;5038767;28;20185;-80
2023/03/25 06:29:40;;;;;;;0.10;0.10;;;9.80;99.90;;;;;;5034285;28;20224;-80
2023/03/25 06:32:07;;;;;;;0.10;0.10;;;9.90;99.90;;;;;;5035652;28;20193;-79
2023/03/25 06:34:33;;;;;;;0.10;0.10;;;9.80;99.90;;;;;;5038130;28;20601;-79
2023/03/25 06:37:00;;;;;;;0.10;0.10;;;9.80;99.90;;;;;;5038740;28;20221;-79
2023/03/25 06:39:29;;;;;;;0.10;0.10;;;9.80;99.90;;;;;;5056408;28;20212;-79
2023/03/25 06:41:57;;;;;;;0.10;0.10;;;9.80;99.90;;;;;;5037482;28;20272;-79
2023/03/25 06:44:23;;;;;;;0.10;0.10;;;9.80;99.90;;;;;;5052877;28;20195;-79
2023/03/25 06:46:48;;;;;;;0.10;0.10;;;9.90;99.90;;;;;;5035973;28;20181;-79
2023/03/25 06:49:14;;;;;;;0.10;0.10;;;9.90;99.90;;;;;;5055447;28;20217;-79
2023/03/25 06:51:39;;;;;;;0.10;0.10;;;9.90;99.90;;;;;;5038344;28;20185;-80
2023/03/25 06:54:05;;;;;;;0.10;0.10;;;10.00;99.90;;;;;;5056696;28;20283;-79
2023/03/25 06:56:30;;;;;;;0.10;0.10;;;10.00;99.90;;;;;;5036174;28;20227;-79
2023/03/25 06:58:56;;;;;;;0.10;0.10;;;10.10;99.90;;;;;;5039425;28;20212;-80
2023/03/25 07:01:21;;;;;;;0.10;0.10;;;10.30;99.90;;;;;;5040374;28;20212;-79
2023/03/25 07:03:47;;;;;;;0.10;0.10;;;10.30;99.90;;;;;;5043097;28;20205;-80
2023/03/25 07:06:18;;;;;;;0.10;0.10;;;10.40;99.90;;;;;;5057632;28;20268;-80
2023/03/25 07:08:44;;;;;;;0.07;0.07;;;10.50;99.90;;;;;;5058192;28;20214;-79
2023/03/25 07:11:12;;;;;;;0.10;0.10;;;10.50;99.90;;;;;;5037376;28;20422;-80
2023/03/25 07:13:38;;;;;;;0.10;0.10;;;10.40;99.90;;;;;;5056767;28;20212;-81
2023/03/25 07:16:04;;;;;;;0.10;0.10;;;10.40;99.90;;;;;;5036773;28;20188;-80
2023/03/25 07:18:30;;;;;;;0.10;0.10;;;10.50;99.90;;;;;;5037526;28;20285;-80
2023/03/25 07:20:56;;;;;;;0.10;0.10;;;10.50;99.90;;;;;;5037463;28;21021;-79
2023/03/25 07:23:21;;;;;;;0.10;0.10;;;10.60;99.90;;;;;;5035042;28;20188;-79
2023/03/25 07:25:47;;;;;;;0.10;0.10;;;10.60;99.90;;;;;;5034830;28;20181;-78
2023/03/25 07:28:12;;;;;;;0.00;0.00;;;10.70;99.90;;;;;;5037198;28;20228;-79
2023/03/25 07:30:38;;;;;;;0.07;0.07;;;10.60;99.90;;;;;;5036060;28;20185;-81
2023/03/25 07:33:03;;;;;;;0.10;0.10;;;10.70;99.90;;;;;;5037487;28;20185;-79
2023/03/25 07:35:29;;;;;;;0.07;0.07;;;10.60;99.90;;;;;;5055652;28;20205;-80
2023/03/25 07:37:54;;;;;;;0.10;0.10;;;10.70;99.90;;;;;;5036091;28;20677;-81
2023/03/25 07:40:20;;;;;;;0.10;0.10;;;10.60;99.90;;;;;;5055832;28;20585;-81
2023/03/25 07:42:46;;;;;;;0.10;0.10;;;10.70;99.90;;;;;;5035477;28;20243;-80
2023/03/25 07:45:11;;;;;;;0.10;0.10;;;10.90;99.90;;;;;;5055389;28;21209;-80
2023/03/25 07:47:37;;;;;;;0.10;0.10;;;11.00;99.90;;;;;;5037166;28;20670;-80
2023/03/25 07:50:03;;;;;;;0.00;0.00;;;11.00;99.90;;;;;;5028776;28;20205;-81
2023/03/25 07:52:29;;;;;;;0.10;0.10;;;11.10;99.90;;;;;;5036132;28;20725;-80
2023/03/25 07:54:54;;;;;;;0.10;0.10;;;11.20;99.90;;;;;;5037420;28;20235;-81
2023/03/25 07:57:20;;;;;;;0.10;0.10;;;11.20;99.90;;;;;;5052846;28;20268;-80
2023/03/25 07:59:46;;;;;;;0.10;0.10;;;11.20;99.90;;;;;;5030565;28;20606;-81
2023/03/25 08:02:12;;;;;;;0.10;0.10;;;11.30;99.90;;;;;;5033276;28;20208;-80
2023/03/25 08:04:38;;;;;;;0.10;0.10;;;11.30;99.90;;;;;;5032283;28;20192;-80
2023/03/25 08:07:04;;;;;;;0.10;0.10;;;11.40;99.90;;;;;;5038560;28;20189;-80
2023/03/25 08:09:30;;;;;;;0.10;0.10;;;11.30;99.90;;;;;;5053151;28;20205;-79
2023/03/25 08:11:55;;;;;;;0.10;0.10;;;11.30;99.90;;;;;;5040189;28;20177;-79
2023/03/25 08:14:21;;;;;;;0.10;0.10;;;11.30;99.90;;;;;;5039650;28;20265;-79
2023/03/25 08:16:46;;;;;;;0.10;0.10;;;11.30;99.90;;;;;;5056045;28;20188;-79
2023/03/25 08:19:12;;;;;;;0.10;0.10;;;11.40;99.90;;;;;;5037409;28;20255;-80
2023/03/25 08:21:38;;;;;;;0.00;0.00;;;11.40;99.90;;;;;;5039398;28;20577;-79
2023/03/25 08:24:04;;;;;;;0.10;0.10;;;11.80;99.90;;;;;;5037666;28;20583;-80
2023/03/25 08:26:30;;;;;;;0.10;0.10;;;12.10;99.90;;;;;;5037484;28;20234;-79
2023/03/25 08:28:56;;;;;;;0.10;0.10;;;12.20;99.90;;;;;;5054730;28;20223;-79
2023/03/25 08:31:29;;;;;;;0.10;0.10;;;12.40;99.90;;;;;;5054863;28;20189;-79
2023/03/25 08:34:01;;;;;;;0.00;0.00;;;12.20;99.90;;;;;;5039085;28;20182;-80
2023/03/25 08:36:27;;;;;;;0.10;0.10;;;12.50;99.90;;;;;;5053607;28;20189;-80
2023/03/25 08:38:52;;;;;;;0.10;0.10;;;12.70;99.90;;;;;;5036396;28;20211;-79
2023/03/25 08:41:18;;;;;;;0.10;0.10;;;12.70;99.90;;;;;;5039105;28;20209;-80
2023/03/25 08:43:44;;;;;;;0.10;0.10;;;12.70;99.90;;;;;;5036073;28;20186;-80
2023/03/25 08:46:10;;;;;;;0.10;0.10;;;12.80;99.90;;;;;;5052556;28;20188;-80
2023/03/25 08:48:36;;;;;;;0.10;0.10;;;12.90;99.90;;;;;;5034170;28;20202;-79
2023/03/25 08:51:02;;;;;;;0.10;0.10;;;12.70;99.90;;;;;;5037220;28;21024;-78
2023/03/25 08:53:27;;;;;;;0.10;0.10;;;12.60;99.90;;;;;;5037338;28;20225;-78
2023/03/25 08:55:55;;;;;;;0.10;0.10;;;12.60;99.90;;;;;;5035317;28;20839;-79
2023/03/25 08:58:21;;;;;;;0.10;0.10;;;12.70;99.90;;;;;;5034302;28;20258;-80
2023/03/25 09:00:52;;;;;;;0.10;0.10;;;12.70;99.90;;;;;;5055720;28;20209;-81
2023/03/25 09:03:17;;;;;;;0.10;0.10;;;12.50;99.90;;;;;;5054855;28;20208;-81
2023/03/25 09:05:43;;;;;;;0.10;0.10;;;12.70;99.90;;;;;;5054424;28;20193;-81
2023/03/25 09:08:09;;;;;;;0.10;0.10;;;12.80;99.90;;;;;;5054841;28;20277;-80
2023/03/25 09:10:34;;;;;;;0.10;0.10;;;13.10;99.90;;;;;;5052416;28;20209;-80
2023/03/25 09:13:00;;;;;;;0.10;0.10;;;13.10;99.90;;;;;;5054648;28;20945;-81
2023/03/25 09:15:25;;;;;;;0.10;0.10;;;13.10;99.90;;;;;;5026840;28;20189;-80
2023/03/25 09:17:51;;;;;;;0.10;0.10;;;13.00;99.90;;;;;;5054713;28;20557;-80
2023/03/25 09:20:17;;;;;;;0.10;0.10;;;12.60;99.90;;;;;;5055310;28;20222;-81
2023/03/25 09:22:43;;;;;;;0.00;0.00;;;12.30;99.90;;;;;;5034921;28;20890;-82
2023/03/25 09:25:09;;;;;;;0.10;0.10;;;12.20;99.90;;;;;;5033343;28;20188;-79
2023/03/25 09:27:35;;;;;;;0.00;0.00;;;12.10;99.90;;;;;;5052549;28;20544;-78
2023/03/25 09:30:00;;;;;;;0.10;0.10;;;11.90;99.90;;;;;;5031992;28;20439;-79
2023/03/25 09:32:26;;;;;;;0.10;0.10;;;11.60;99.90;;;;;;5050673;28;20257;-79
2023/03/25 09:34:51;;;;;;;0.10;0.10;;;10.80;99.90;;;;;;5030845;28;20193;-79
2023/03/25 09:37:17;;;;;;;0.10;0.10;;;10.10;99.90;;;;;;5052644;28;20189;-79
2023/03/25 09:39:43;;;;;;;0.10;0.10;;;9.80;99.90;;;;;;5035969;28;20945;-79
2023/03/25 09:42:33;;;;;;;0.10;0.10;;;9.70;99.90;;;;;;5053508;28;20222;-78
2023/03/25 09:45:40;;;;;;;0.03;0.03;;;9.70;99.90;;;;;;5035291;28;20192;-79
2023/03/25 09:48:15;;;;;;;0.10;0.10;;;10.00;99.90;;;;;;5054449;28;20181;-78
2023/03/25 09:50:43;;;;;;;0.10;0.10;;;10.20;99.90;;;;;;5036351;28;20234;-78
2023/03/25 09:53:08;;;;;;;0.10;0.10;;;10.20;99.90;;;;;;5034033;28;20282;-78
2023/03/25 09:55:39;;;;;;;0.10;0.10;;;10.30;99.90;;;;;;5035521;28;20182;-78
2023/03/25 09:58:20;;;;;;;0.10;0.10;;;10.20;99.90;;;;;;5050353;28;20189;-79
2023/03/25 10:00:50;;;;;;;0.10;0.10;;;10.20;99.90;;;;;;5044658;28;20580;-79
2023/03/25 10:03:27;;;;;;;0.10;0.10;;;10.00;99.90;;;;;;5037390;28;20198;-79
2023/03/25 10:06:12;;;;;;;0.10;0.10;;;10.10;99.90;;;;;;5039408;28;20208;-80
2023/03/25 10:09:03;;;;;;;0.10;0.10;;;10.40;99.90;;;;;;5036290;28;20205;-82
2023/03/25 10:12:14;;;;;;;0.10;0.10;;;10.60;99.90;;;;;;5028167;28;20192;-80
2023/03/25 10:15:19;;;;;;;0.10;0.10;;;10.90;99.90;;;;;;5055706;28;20205;-79
2023/03/25 10:18:03;;;;;;;0.10;0.10;;;11.30;99.90;;;;;;5000049;28;20662;-79
2023/03/25 10:20:46;;;;;;;0.10;0.10;;;11.70;99.90;;;;;;5037708;28;20212;-80
2023/03/25 10:23:20;;;;;;;0.10;0.10;;;12.10;99.90;;;;;;5036875;28;20915;-79
2023/03/25 10:25:53;;;;;;;0.10;0.10;;;12.50;99.90;;;;;;5055398;28;20592;-80
2023/03/25 10:28:26;;;;;;;0.03;0.03;;;12.80;99.90;;;;;;5054047;28;20283;-81
2023/03/25 10:30:53;;;;;;;0.10;0.10;;;13.20;99.90;;;;;;5036981;28;20180;-80
2023/03/25 10:33:36;;;;;;;0.10;0.10;;;13.20;99.90;;;;;;5054299;28;20199;-80
2023/03/25 10:36:06;;;;;;;0.10;0.10;;;12.80;99.90;;;;;;5037453;28;20189;-79
2023/03/25 10:38:34;;;;;;;0.10;0.10;;;12.70;99.90;;;;;;5035201;28;20219;-79
2023/03/25 10:41:25;;;;;;;0.10;0.10;;;12.90;99.90;;;;;;5036026;28;20633;-79
2023/03/25 10:43:51;;;;;;;0.10;0.10;;;13.00;99.90;;;;;;5053535;28;20188;-80
2023/03/25 10:46:45;;;;;;;0.10;0.10;;;13.20;99.90;;;;;;5036108;28;20738;-80
2023/03/25 10:49:14;;;;;;;0.00;0.00;;;13.50;99.90;;;;;;5039785;28;20261;-80
2023/03/25 10:51:40;;;;;;;0.10;0.10;;;13.90;99.90;;;;;;5055072;28;20214;-80
2023/03/25 10:54:05;;;;;;;0.10;0.10;;;14.10;99.90;;;;;;5036944;28;20390;-79
2023/03/25 10:56:35;;;;;;;0.10;0.10;;;14.20;99.90;;;;;;5055060;28;20196;-79
2023/03/25 10:59:09;;;;;;;0.10;0.10;;;14.30;99.90;;;;;;5054277;28;20214;-80
2023/03/25 11:01:39;;;;;;;0.10;0.10;;;14.30;99.90;;;;;;5037480;28;20714;-80
2023/03/25 11:04:07;;;;;;;0.10;0.10;;;14.60;99.90;;;;;;5054144;28;20543;-80
2023/03/25 11:06:38;;;;;;;0.10;0.10;;;14.20;99.90;;;;;;5036173;28;20218;-80
2023/03/25 11:09:07;;;;;;;0.10;0.10;;;14.20;99.90;;;;;;5036913;28;20682;-79
2023/03/25 11:11:34;;;;;;;0.10;0.10;;;14.30;99.90;;;;;;5053778;28;20211;-80
2023/03/25 11:14:00;;;;;;;0.10;0.10;;;14.70;99.90;;;;;;5056643;28;20265;-80
2023/03/25 11:16:29;;;;;;;0.10;0.10;;;15.00;99.90;;;;;;5038599;28;20218;-80
2023/03/25 11:18:54;;;;;;;0.10;0.10;;;15.10;99.90;;;;;;5055949;28;20295;-80
2023/03/25 11:21:20;;;;;;;0.10;0.10;;;15.10;99.90;;;;;;5054485;28;20764;-80
2023/03/25 11:23:48;;;;;;;0.10;0.10;;;15.00;99.90;;;;;;5056993;28;20192;-80
2023/03/25 11:26:23;;;;;;;0.10;0.10;;;15.10;99.90;;;;;;5054923;28;20191;-80
2023/03/25 11:29:14;;;;;;;0.10;0.10;;;15.10;99.90;;;;;;5036896;28;20754;-80
2023/03/25 11:31:41;;;;;;;0.10;0.10;;;15.00;99.90;;;;;;5022060;28;20624;-80
2023/03/25 11:34:10;;;;;;;0.10;0.10;;;14.90;99.90;;;;;;5036293;28;20184;-80
2023/03/25 11:36:38;;;;;;;0.10;0.10;;;14.70;99.90;;;;;;5034991;28;20230;-81
2023/03/25 11:39:23;;;;;;;0.10;0.10;;;15.20;99.90;;;;;;5053376;28;20291;-80
2023/03/25 11:41:50;;;;;;;0.10;0.10;;;15.40;99.90;;;;;;5024490;28;20220;-80
2023/03/25 11:44:27;;;;;;;0.10;0.10;;;15.40;99.90;;;;;;5041118;28;20186;-80
2023/03/25 11:46:57;;;;;;;0.10;0.10;;;14.90;99.90;;;;;;5040085;28;20185;-81
2023/03/25 11:49:25;;;;;;;0.10;0.10;;;15.10;99.90;;;;;;5041862;28;20208;-79
2023/03/25 11:51:58;;;;;;;0.10;0.10;;;15.00;99.90;;;;;;5038148;28;20180;-81
2023/03/25 11:54:25;;;;;;;0.10;0.10;;;14.90;99.90;;;;;;5055835;28;20195;-79
2023/03/25 11:56:50;;;;;;;0.10;0.10;;;15.10;99.90;;;;;;5058012;28;20260;-80
2023/03/25 11:59:34;;;;;;;0.10;0.10;;;15.10;99.90;;;;;;5056249;28;20344;-80
2023/03/25 12:02:30;;;;;;;0.10;0.10;;;15.10;99.90;;;;;;5055098;28;20196;-81
2023/03/25 12:05:00;;;;;;;0.10;0.10;;;14.90;99.90;;;;;;5049732;28;20199;-80
2023/03/25 12:07:26;;;;;;;0.10;0.10;;;14.90;99.90;;;;;;5039333;28;20189;-80
2023/03/25 12:10:04;;;;;;;0.10;0.10;;;15.10;99.90;;;;;;5038879;28;20282;-80
2023/03/25 12:12:47;;;;;;;0.10;0.10;;;14.90;99.90;;;;;;5048409;28;20185;-80
2023/03/25 12:15:26;;;;;;;0.10;0.10;;;15.00;99.90;;;;;;5041101;28;20184;-80
2023/03/25 12:18:05;;;;;;;0.10;0.10;;;15.20;99.90;;;;;;5040396;28;20177;-81
2023/03/25 12:20:54;;;;;;;0.10;0.10;;;15.30;99.90;;;;;;5057568;28;20240;-80
2023/03/25 12:23:28;;;;;;;0.00;0.00;;;15.30;99.90;;;;;;5057425;28;20185;-80
2023/03/25 12:26:09;;;;;;;0.10;0.10;;;15.50;99.90;;;;;;5058937;28;20187;-79
2023/03/25 12:29:17;;;;;;;0.10;0.10;;;15.30;99.90;;;;;;5040681;28;20221;-80
2023/03/25 12:32:00;;;;;;;0.10;0.10;;;15.40;99.90;;;;;;5014575;28;20709;-80
2023/03/25 12:35:02;;;;;;;0.10;0.10;;;15.50;99.90;;;;;;5056436;28;20687;-80
2023/03/25 12:37:38;;;;;;;0.10;0.10;;;16.10;99.90;;;;;;5039978;28;20186;-80
2023/03/25 12:40:16;;;;;;;0.10;0.10;;;16.50;99.90;;;;;;5059013;28;20217;-79
2023/03/25 12:43:05;;;;;;;0.10;0.10;;;16.10;99.90;;;;;;5050310;28;21204;-80
2023/03/25 12:46:09;;;;;;;0.10;0.10;;;15.90;99.90;;;;;;5031945;28;20193;-79
2023/03/25 12:48:41;;;;;;;0.10;0.10;;;16.10;99.90;;;;;;5057483;28;20294;-80
2023/03/25 12:51:28;;;;;;;0.10;0.10;;;15.40;99.90;;;;;;5041099;28;20210;-79
2023/03/25 12:54:15;;;;;;;0.10;0.10;;;15.20;99.90;;;;;;5046337;28;20585;-80
2023/03/25 12:57:19;;;;;;;0.10;0.10;;;15.60;99.90;;;;;;5057831;28;20192;-79
2023/03/25 13:00:06;;;;;;;0.10;0.10;;;15.80;99.90;;;;;;5038517;28;20816;-80
2023/03/25 13:03:06;;;;;;;0.10;0.10;;;15.50;99.90;;;;;;5039975;28;20945;-80
2023/03/25 13:05:39;;;;;;;0.10;0.10;;;15.40;99.90;;;;;;5040127;28;20192;-80
2023/03/25 13:08:17;;;;;;;0.10;0.10;;;14.90;99.90;;;;;;5039127;28;20185;-79
2023/03/25 13:10:47;;;;;;;0.10;0.10;;;14.50;99.90;;;;;;5039156;28;20190;-81
2023/03/25 13:13:23;;;;;;;0.10;0.10;;;14.20;99.90;;;;;;5058028;28;20692;-80